createdAt,value
2023-05-22T00:01:56.225Z,6.77
2023-05-22T00:04:23.636Z,6.57
2023-05-22T00:06:50.617Z,5.33
2023-05-22T00:09:17.520Z,7.43
2023-05-22T00:11:44.480Z,4.60
2023-05-22T00:14:13.754Z,5.67
2023-05-22T00:16:41.427Z,5.33
2023-05-22T00:19:13.748Z,9.07
2023-05-22T00:21:40.763Z,10.47
2023-05-22T00:24:07.743Z,5.77
2023-05-22T00:26:34.707Z,9.53
2023-05-22T00:29:01.599Z,6.13
2023-05-22T00:31:28.890Z,7.77
2023-05-22T00:33:55.785Z,4.23
2023-05-22T00:36:23.589Z,7.47
2023-05-22T00:38:51.048Z,8.60
2023-05-22T00:41:18.118Z,5.73
2023-05-22T00:43:46.378Z,8.53
2023-05-22T00:46:14.709Z,4.90
2023-05-22T00:48:42.206Z,5.83
2023-05-22T00:51:09.193Z,4.67
2023-05-22T00:53:37.299Z,5.47
2023-05-22T00:56:04.526Z,6.17
2023-05-22T00:58:31.610Z,4.57
2023-05-22T01:00:59.224Z,4.43
2023-05-22T01:03:27.293Z,4.10
2023-05-22T01:05:55.358Z,4.70
2023-05-22T01:08:22.944Z,4.93
2023-05-22T01:10:54.855Z,4.70
2023-05-22T01:13:30.196Z,5.50
2023-05-22T01:16:00.427Z,5.10
2023-05-22T01:18:46.462Z,7.57
2023-05-22T01:21:26.445Z,5.03
2023-05-22T01:24:14.041Z,6.03
2023-05-22T01:26:54.285Z,6.83
2023-05-22T01:29:30.507Z,4.37
2023-05-22T01:31:59.336Z,6.70
2023-05-22T01:34:27.120Z,7.60
2023-05-22T01:36:55.022Z,5.97
2023-05-22T01:39:22.961Z,5.07
2023-05-22T01:41:50.067Z,6.03
2023-05-22T01:44:17.073Z,8.63
2023-05-22T01:46:43.969Z,11.77
2023-05-22T01:49:10.930Z,6.60
2023-05-22T01:51:51.394Z,5.80
2023-05-22T01:54:27.176Z,5.30
2023-05-22T01:56:57.340Z,8.27
2023-05-22T01:59:34.645Z,9.63
2023-05-22T02:02:05.307Z,6.93
2023-05-22T02:04:33.438Z,11.13
2023-05-22T02:07:01.334Z,7.13
2023-05-22T02:09:31.434Z,9.10
2023-05-22T02:11:59.366Z,9.03
2023-05-22T02:14:28.548Z,5.97
2023-05-22T02:16:57.024Z,7.37
2023-05-22T02:19:26.722Z,7.03
2023-05-22T02:21:53.793Z,6.33
2023-05-22T02:24:20.850Z,6.93
2023-05-22T02:26:48.242Z,7.57
2023-05-22T02:29:15.496Z,9.30
2023-05-22T02:31:42.578Z,6.27
2023-05-22T02:34:11.325Z,14.00
2023-05-22T02:36:38.376Z,11.40
2023-05-22T02:39:05.565Z,5.53
2023-05-22T02:41:32.498Z,8.37
2023-05-22T02:43:59.389Z,6.27
2023-05-22T02:46:26.996Z,9.63
2023-05-22T02:48:53.977Z,5.17
2023-05-22T02:51:20.868Z,7.17
2023-05-22T02:53:47.834Z,9.13
2023-05-22T02:56:14.726Z,5.13
2023-05-22T02:58:41.923Z,10.80
2023-05-22T03:01:09.301Z,8.43
2023-05-22T03:03:36.972Z,6.97
2023-05-22T03:06:04.412Z,5.87
2023-05-22T03:08:33.084Z,5.90
2023-05-22T03:11:00.666Z,6.53
2023-05-22T03:13:27.674Z,7.33
2023-05-22T03:15:54.720Z,8.70
2023-05-22T03:18:23.203Z,8.43
2023-05-22T03:20:51.481Z,5.90
2023-05-22T03:23:20.970Z,8.10
2023-05-22T03:25:48.039Z,6.60
2023-05-22T03:28:14.953Z,7.10
2023-05-22T03:30:42.200Z,7.30
2023-05-22T03:33:18.591Z,5.80
2023-05-22T03:35:45.663Z,5.70
2023-05-22T03:38:12.543Z,6.07
2023-05-22T03:40:40.216Z,8.80
2023-05-22T03:43:08.421Z,6.87
2023-05-22T03:45:35.659Z,6.90
2023-05-22T03:48:04.095Z,7.50
2023-05-22T03:50:31.170Z,6.97
2023-05-22T03:52:58.041Z,8.37
2023-05-22T03:55:25.088Z,5.13
2023-05-22T03:57:51.887Z,7.10
2023-05-22T04:00:19.898Z,5.97
2023-05-22T04:02:47.063Z,6.17
2023-05-22T04:05:14.242Z,4.90
2023-05-22T04:07:41.453Z,11.83
2023-05-22T04:10:08.529Z,6.97
2023-05-22T04:12:35.675Z,11.30
2023-05-22T04:15:02.581Z,7.70
2023-05-22T04:17:36.617Z,6.77
2023-05-22T04:20:05.757Z,5.33
2023-05-22T04:22:33.839Z,6.10
2023-05-22T04:25:00.721Z,5.20
2023-05-22T04:27:29.988Z,5.90
2023-05-22T04:29:56.903Z,7.47
2023-05-22T04:32:25.109Z,10.57
2023-05-22T04:34:52.064Z,6.47
2023-05-22T04:37:20.577Z,6.17
2023-05-22T04:39:48.953Z,7.67
2023-05-22T04:42:16.209Z,6.70
2023-05-22T04:44:43.791Z,5.67
2023-05-22T04:47:12.639Z,6.57
2023-05-22T04:49:39.629Z,10.73
2023-05-22T04:52:07.383Z,7.20
2023-05-22T04:54:34.771Z,6.37
2023-05-22T04:57:03.110Z,7.77
2023-05-22T04:59:31.846Z,9.00
2023-05-22T05:01:59.092Z,5.67
2023-05-22T05:04:26.095Z,6.63
2023-05-22T05:06:53.722Z,6.33
2023-05-22T05:09:21.079Z,9.63
2023-05-22T05:11:48.007Z,8.27
2023-05-22T05:14:14.888Z,10.07
2023-05-22T05:16:41.877Z,6.33
2023-05-22T05:19:09.021Z,5.47
2023-05-22T05:21:36.127Z,7.87
2023-05-22T05:24:03.078Z,4.47
2023-05-22T05:26:30.363Z,9.47
2023-05-22T05:28:58.261Z,9.03
2023-05-22T05:31:33.482Z,7.10
2023-05-22T05:34:13.802Z,7.07
2023-05-22T05:37:13.169Z,10.03
2023-05-22T05:39:41.047Z,8.80
2023-05-22T05:42:09.395Z,9.80
2023-05-22T05:44:36.669Z,10.37
2023-05-22T05:47:06.543Z,6.77
2023-05-22T05:49:35.871Z,7.17
2023-05-22T05:52:05.267Z,12.47
2023-05-22T05:54:35.302Z,6.83
2023-05-22T05:57:07.773Z,7.33
2023-05-22T05:59:35.095Z,12.90
2023-05-22T06:02:24.780Z,7.70
2023-05-22T06:04:56.326Z,10.63
2023-05-22T06:07:24.460Z,4.57
2023-05-22T06:09:53.370Z,8.97
2023-05-22T06:12:27.494Z,7.43
2023-05-22T06:14:54.455Z,5.00
2023-05-22T06:17:21.817Z,6.30
2023-05-22T06:19:49.423Z,6.20
2023-05-22T06:22:17.544Z,9.37
2023-05-22T06:24:47.350Z,7.97
2023-05-22T06:27:18.825Z,8.73
2023-05-22T06:29:47.019Z,8.17
2023-05-22T06:32:13.992Z,9.93
2023-05-22T06:34:44.521Z,6.00
2023-05-22T06:37:13.335Z,8.20
2023-05-22T06:39:42.849Z,8.17
2023-05-22T06:42:27.421Z,6.60
2023-05-22T06:45:20.172Z,5.73
2023-05-22T06:48:06.549Z,8.23
2023-05-22T06:50:39.738Z,7.73
2023-05-22T06:53:06.992Z,4.60
2023-05-22T06:55:34.055Z,8.13
2023-05-22T06:58:08.602Z,6.23
2023-05-22T07:00:36.154Z,4.37
2023-05-22T07:03:08.767Z,5.70
2023-05-22T07:06:05.609Z,7.93
2023-05-22T07:08:32.573Z,9.07
2023-05-22T07:11:02.065Z,4.60
2023-05-22T07:13:32.288Z,7.33
2023-05-22T07:15:59.752Z,5.63
2023-05-22T07:18:26.796Z,3.63
2023-05-22T07:20:53.829Z,6.57
2023-05-22T07:23:24.358Z,8.57
2023-05-22T07:25:52.539Z,5.53
2023-05-22T07:28:22.463Z,4.47
2023-05-22T07:31:00.624Z,4.57
2023-05-22T07:33:27.780Z,6.07
2023-05-22T07:35:55.961Z,5.13
2023-05-22T07:38:23.600Z,5.57
2023-05-22T07:40:57.493Z,3.83
2023-05-22T07:43:25.584Z,4.97
2023-05-22T07:45:54.436Z,4.03
2023-05-22T07:48:27.994Z,4.10
2023-05-22T07:50:55.215Z,3.93
2023-05-22T07:53:22.136Z,6.00
2023-05-22T07:55:51.256Z,10.00
2023-05-22T07:58:18.683Z,10.00
2023-05-22T08:00:47.714Z,6.70
2023-05-22T08:03:14.784Z,5.00
2023-05-22T08:05:42.216Z,6.93
2023-05-22T08:08:10.593Z,6.77
2023-05-22T08:13:07.276Z,5.70
2023-05-22T08:15:34.683Z,5.27
2023-05-22T08:18:01.792Z,2.60
2023-05-22T08:20:28.781Z,5.17
2023-05-22T08:22:55.858Z,3.30
2023-05-22T08:25:22.922Z,6.63
2023-05-22T08:27:49.798Z,5.40
2023-05-22T08:30:16.820Z,13.73
2023-05-22T08:32:43.730Z,5.63
2023-05-22T08:35:10.729Z,7.47
2023-05-22T08:37:37.723Z,5.97
2023-05-22T08:40:05.604Z,4.63
2023-05-22T08:42:32.555Z,12.50
2023-05-22T08:45:01.390Z,5.50
2023-05-22T08:47:28.671Z,9.27
2023-05-22T08:49:58.269Z,5.10
2023-05-22T08:52:29.305Z,5.47
2023-05-22T08:54:56.936Z,7.47
2023-05-22T08:57:24.540Z,5.50
2023-05-22T08:59:51.623Z,10.27
2023-05-22T09:02:18.659Z,3.13
2023-05-22T09:04:45.596Z,4.63
2023-05-22T09:07:12.432Z,4.63
2023-05-22T09:09:39.663Z,6.00
2023-05-22T09:12:10.099Z,5.20
2023-05-22T09:14:40.915Z,8.77
2023-05-22T09:17:08.791Z,3.20
2023-05-22T09:19:35.937Z,4.17
2023-05-22T09:22:04.478Z,3.33
2023-05-22T09:24:31.485Z,4.73
2023-05-22T09:27:02.902Z,11.67
2023-05-22T09:29:29.780Z,11.03
2023-05-22T09:31:57.493Z,4.03
2023-05-22T09:34:28.353Z,4.70
2023-05-22T09:37:01.754Z,7.60
2023-05-22T09:39:38.373Z,7.37
2023-05-22T09:42:05.486Z,7.37
2023-05-22T09:44:32.329Z,13.97
2023-05-22T09:46:59.636Z,3.53
2023-05-22T09:49:26.447Z,9.60
2023-05-22T09:51:54.564Z,3.87
2023-05-22T09:54:21.988Z,5.37
2023-05-22T09:56:50.355Z,9.37
2023-05-22T09:59:20.968Z,5.83
2023-05-22T10:01:48.332Z,7.50
2023-05-22T10:04:16.618Z,4.67
2023-05-22T10:06:45.139Z,9.13
2023-05-22T10:09:18.871Z,3.37
2023-05-22T10:11:46.595Z,4.80
2023-05-22T10:14:13.646Z,6.17
2023-05-22T10:16:41.619Z,4.30
2023-05-22T10:19:09.466Z,3.67
2023-05-22T10:21:37.227Z,7.07
2023-05-22T10:24:04.905Z,3.00
2023-05-22T10:26:31.923Z,3.27
2023-05-22T10:29:12.436Z,6.17
2023-05-22T10:31:58.045Z,3.10
2023-05-22T10:34:39.141Z,5.60
2023-05-22T10:37:17.353Z,4.13
2023-05-22T10:40:08.379Z,12.33
2023-05-22T10:42:37.551Z,4.20
2023-05-22T10:45:06.957Z,4.13
2023-05-22T10:47:34.369Z,6.67
2023-05-22T10:50:05.651Z,4.70
2023-05-22T10:52:32.521Z,4.73
2023-05-22T10:55:06.445Z,5.97
2023-05-22T10:57:34.712Z,7.03
2023-05-22T11:00:09.726Z,4.60
2023-05-22T11:02:39.033Z,5.57
2023-05-22T11:05:25.829Z,8.93
2023-05-22T11:07:52.950Z,4.07
2023-05-22T11:10:26.974Z,4.73
2023-05-22T11:13:11.845Z,6.77
2023-05-22T11:15:44.180Z,9.40
2023-05-22T11:18:12.067Z,5.40
2023-05-22T11:20:40.166Z,4.47
2023-05-22T11:23:08.104Z,5.57
2023-05-22T11:25:36.767Z,5.13
2023-05-22T11:28:05.658Z,5.67
2023-05-22T11:30:32.848Z,14.37
2023-05-22T11:33:00.202Z,5.30
2023-05-22T11:35:28.273Z,10.73
2023-05-22T11:37:55.857Z,5.50
2023-05-22T11:40:26.902Z,10.13
2023-05-22T11:42:54.288Z,3.57
2023-05-22T11:45:22.003Z,14.87
2023-05-22T11:47:49.257Z,4.53
2023-05-22T11:50:22.803Z,5.03
2023-05-22T11:52:56.778Z,5.10
2023-05-22T11:55:23.760Z,3.87
2023-05-22T11:57:50.673Z,6.00
2023-05-22T12:00:17.997Z,10.03
2023-05-22T12:02:46.037Z,5.10
2023-05-22T12:05:12.956Z,9.10
2023-05-22T12:07:39.957Z,6.47
2023-05-22T12:10:07.622Z,6.57
2023-05-22T12:12:34.673Z,5.50
2023-05-22T12:15:01.583Z,5.00
2023-05-22T12:17:28.936Z,7.60
2023-05-22T12:19:55.812Z,6.23
2023-05-22T12:22:29.886Z,3.20
2023-05-22T12:24:56.824Z,7.60
2023-05-22T12:27:23.716Z,6.10
2023-05-22T12:29:52.967Z,7.13
2023-05-22T12:32:22.009Z,4.67
2023-05-22T12:34:50.553Z,6.00
2023-05-22T12:37:21.328Z,15.63
2023-05-22T12:39:55.677Z,14.07
2023-05-22T12:42:22.695Z,13.93
2023-05-22T12:44:52.240Z,11.60
2023-05-22T12:47:19.346Z,11.13
2023-05-22T12:49:46.168Z,5.57
2023-05-22T12:52:13.605Z,5.67
2023-05-22T12:54:40.613Z,11.57
2023-05-22T12:57:07.549Z,7.17
2023-05-22T12:59:34.980Z,15.33
2023-05-22T13:02:03.421Z,5.10
2023-05-22T13:04:30.714Z,8.37
2023-05-22T13:06:57.631Z,5.50
2023-05-22T13:09:24.589Z,5.83
2023-05-22T13:11:51.726Z,5.60
2023-05-22T13:14:18.569Z,4.13
2023-05-22T13:16:45.655Z,4.57
2023-05-22T13:19:12.581Z,7.50
2023-05-22T13:21:39.543Z,8.23
2023-05-22T13:24:07.024Z,6.40
2023-05-22T13:26:34.017Z,7.37
2023-05-22T13:29:00.927Z,11.83
2023-05-22T13:31:28.203Z,5.77
2023-05-22T13:33:55.055Z,4.63
2023-05-22T13:36:22.016Z,6.80
2023-05-22T13:38:48.968Z,5.93
2023-05-22T13:41:16.072Z,6.33
2023-05-22T13:43:42.895Z,3.83
2023-05-22T13:46:09.794Z,7.70
2023-05-22T13:48:36.653Z,5.33
2023-05-22T13:51:03.518Z,6.57
2023-05-22T13:53:30.395Z,7.17
2023-05-22T13:55:57.437Z,6.23
2023-05-22T13:58:24.332Z,7.73
2023-05-22T14:00:51.379Z,3.97
2023-05-22T14:03:18.579Z,7.13
2023-05-22T14:05:45.741Z,3.57
2023-05-22T14:08:12.945Z,5.30
2023-05-22T14:10:40.021Z,6.80
2023-05-22T14:13:06.906Z,6.57
2023-05-22T14:15:33.823Z,6.40
2023-05-22T14:18:00.862Z,3.30
2023-05-22T14:20:27.769Z,4.70
2023-05-22T14:22:58.144Z,6.97
2023-05-22T14:25:26.065Z,6.03
2023-05-22T14:27:53.029Z,6.80
2023-05-22T14:30:20.064Z,4.73
2023-05-22T14:32:47.134Z,5.50
2023-05-22T14:35:14.205Z,7.33
2023-05-22T14:37:41.090Z,5.37
2023-05-22T14:40:08.461Z,4.87
2023-05-22T14:42:35.737Z,8.80
2023-05-22T14:45:03.936Z,5.97
2023-05-22T14:47:30.817Z,4.07
2023-05-22T14:50:06.210Z,4.70
2023-05-22T14:52:44.691Z,6.30
2023-05-22T14:55:11.650Z,8.20
2023-05-22T14:57:38.556Z,4.83
2023-05-22T15:00:06.791Z,6.53
2023-05-22T15:02:33.852Z,7.27
2023-05-22T15:05:00.840Z,3.73
2023-05-22T15:07:35.850Z,5.93
2023-05-22T15:10:10.575Z,8.30
2023-05-22T15:12:37.508Z,5.17
2023-05-22T15:15:04.522Z,6.73
2023-05-22T15:17:31.543Z,8.03
2023-05-22T15:19:58.381Z,8.03
2023-05-22T15:22:25.276Z,4.57
2023-05-22T15:25:03.777Z,8.73
2023-05-22T15:27:30.822Z,7.27
2023-05-22T15:29:57.988Z,4.60
2023-05-22T15:32:24.913Z,5.67
2023-05-22T15:34:52.621Z,5.93
2023-05-22T15:37:19.596Z,8.83
2023-05-22T15:39:46.384Z,6.07
2023-05-22T15:42:13.397Z,4.90
2023-05-22T15:44:40.224Z,6.13
2023-05-22T15:47:07.142Z,6.47
2023-05-22T15:49:34.065Z,7.83
2023-05-22T15:52:00.952Z,4.97
2023-05-22T15:54:27.777Z,7.73
2023-05-22T15:56:54.680Z,5.00
2023-05-22T15:59:21.519Z,4.83
2023-05-22T16:01:48.445Z,6.50
2023-05-22T16:04:15.567Z,5.37
2023-05-22T16:06:42.491Z,4.67
2023-05-22T16:09:10.173Z,4.20
2023-05-22T16:11:38.111Z,7.73
2023-05-22T16:14:05.145Z,7.17
2023-05-22T16:16:32.130Z,8.93
2023-05-22T16:18:59.269Z,6.67
2023-05-22T16:21:26.096Z,8.73
2023-05-22T16:23:53.019Z,4.60
2023-05-22T16:26:20.048Z,4.63
2023-05-22T16:28:46.894Z,5.60
2023-05-22T16:31:18.346Z,6.97
2023-05-22T16:33:46.250Z,5.00
2023-05-22T16:36:13.124Z,6.23
2023-05-22T16:38:40.738Z,8.10
2023-05-22T16:41:07.577Z,10.77
2023-05-22T16:43:34.545Z,5.23
2023-05-22T16:46:01.493Z,5.07
2023-05-22T16:48:28.487Z,5.27
2023-05-22T16:50:55.457Z,5.23
2023-05-22T16:53:22.465Z,9.77
2023-05-22T16:55:49.338Z,4.40
2023-05-22T16:58:16.148Z,5.63
2023-05-22T17:00:43.143Z,5.83
2023-05-22T17:03:12.006Z,15.10
2023-05-22T17:05:39.223Z,13.77
2023-05-22T17:08:06.828Z,13.57
2023-05-22T17:10:33.773Z,10.60
2023-05-22T17:13:00.701Z,9.63
2023-05-22T17:15:29.917Z,15.50
2023-05-22T17:17:56.957Z,11.57
2023-05-22T17:20:23.966Z,12.77
2023-05-22T17:22:51.186Z,7.60
2023-05-22T17:25:18.140Z,6.60
2023-05-22T17:27:44.987Z,11.70
2023-05-22T17:30:12.184Z,7.90
2023-05-22T17:32:39.206Z,8.17
2023-05-22T17:35:07.100Z,7.33
2023-05-22T17:37:34.252Z,8.93
2023-05-22T17:40:01.303Z,9.20
2023-05-22T17:42:28.586Z,6.00
2023-05-22T17:44:55.458Z,7.83
2023-05-22T17:47:22.386Z,6.90
2023-05-22T17:49:49.416Z,11.37
2023-05-22T17:52:16.491Z,13.17
2023-05-22T17:54:43.530Z,9.63
2023-05-22T17:57:10.550Z,23.97
2023-05-22T17:59:39.858Z,39.53
2023-05-22T18:02:07.868Z,40.73
2023-05-22T18:04:34.707Z,41.27
2023-05-22T18:07:01.665Z,33.27
2023-05-22T18:09:28.613Z,24.20
2023-05-22T18:11:55.531Z,30.70
2023-05-22T18:14:22.323Z,48.37
2023-05-22T18:16:49.238Z,20.27
2023-05-22T18:19:16.286Z,11.83
2023-05-22T18:21:43.401Z,10.17
2023-05-22T18:24:10.396Z,17.97
2023-05-22T18:26:37.190Z,18.20
2023-05-22T18:29:04.091Z,20.27
2023-05-22T18:31:31.006Z,15.60
2023-05-22T18:33:57.858Z,15.97
2023-05-22T18:36:24.794Z,20.03
2023-05-22T18:38:51.775Z,26.57
2023-05-22T18:41:18.620Z,23.10
2023-05-22T18:43:45.487Z,24.50
2023-05-22T18:46:12.609Z,27.80
2023-05-22T18:48:39.448Z,35.70
2023-05-22T18:51:06.297Z,38.23
2023-05-22T18:53:33.315Z,22.67
2023-05-22T18:56:00.183Z,24.47
2023-05-22T18:58:27.162Z,14.77
2023-05-22T19:00:56.068Z,60.50
2023-05-22T19:03:23.200Z,24.13
2023-05-22T19:05:50.060Z,15.67
2023-05-22T19:08:16.978Z,12.23
2023-05-22T19:10:43.896Z,19.43
2023-05-22T19:13:10.828Z,20.37
2023-05-22T19:15:38.616Z,14.10
2023-05-22T19:18:05.721Z,13.40
2023-05-22T19:20:32.679Z,13.40
2023-05-22T19:22:59.530Z,14.00
2023-05-22T19:25:26.500Z,16.53
2023-05-22T19:27:53.293Z,12.93
2023-05-22T19:30:22.028Z,13.83
2023-05-22T19:32:55.873Z,9.77
2023-05-22T19:35:22.933Z,10.83
2023-05-22T19:37:49.771Z,14.03
2023-05-22T19:40:16.657Z,12.60
2023-05-22T19:42:43.570Z,17.00
2023-05-22T19:45:10.639Z,13.47
2023-05-22T19:47:37.510Z,16.33
2023-05-22T19:50:04.626Z,23.57
2023-05-22T19:52:31.421Z,21.20
2023-05-22T19:54:58.276Z,18.70
2023-05-22T19:57:25.191Z,21.00
2023-05-22T19:59:52.082Z,13.30
2023-05-22T20:02:18.924Z,16.10
2023-05-22T20:04:48.649Z,23.07
2023-05-22T20:07:15.824Z,16.73
2023-05-22T20:09:42.720Z,20.10
2023-05-22T20:12:10.635Z,18.13
2023-05-22T20:14:37.837Z,19.27
2023-05-22T20:17:04.939Z,13.80
2023-05-22T20:19:34.684Z,13.60
2023-05-22T20:22:01.750Z,14.93
2023-05-22T20:24:28.803Z,15.43
2023-05-22T20:26:55.728Z,13.20
2023-05-22T20:29:22.839Z,17.07
2023-05-22T20:31:54.752Z,15.03
2023-05-22T20:34:22.290Z,13.73
2023-05-22T20:36:49.477Z,14.03
2023-05-22T20:39:18.240Z,15.17
2023-05-22T20:41:46.015Z,14.33
2023-05-22T20:44:12.945Z,25.43
2023-05-22T20:46:39.837Z,31.87
2023-05-22T20:49:06.865Z,23.50
2023-05-22T20:51:33.871Z,26.07
2023-05-22T20:54:00.913Z,21.57
2023-05-22T20:56:28.034Z,19.37
2023-05-22T20:58:54.994Z,22.13
2023-05-22T21:01:22.352Z,28.03
2023-05-22T21:03:52.011Z,25.40
2023-05-22T21:06:19.314Z,16.90
2023-05-22T21:08:46.150Z,17.97
2023-05-22T21:11:13.269Z,21.03
2023-05-22T21:13:40.067Z,21.73
2023-05-22T21:16:07.121Z,19.63
2023-05-22T21:18:34.024Z,14.30
2023-05-22T21:21:01.100Z,20.87
2023-05-22T21:23:28.003Z,25.30
2023-05-22T21:25:54.943Z,25.77
2023-05-22T21:28:21.738Z,51.80
2023-05-22T21:30:48.626Z,15.67
2023-05-22T21:33:16.072Z,20.33
2023-05-22T21:35:42.955Z,26.90
2023-05-22T21:38:09.931Z,20.40
2023-05-22T21:40:36.763Z,14.30
2023-05-22T21:43:03.709Z,15.00
2023-05-22T21:45:31.345Z,13.80
2023-05-22T21:47:58.365Z,14.40
2023-05-22T21:50:25.293Z,17.87
2023-05-22T21:52:52.206Z,12.23
2023-05-22T21:55:19.173Z,15.57
2023-05-22T21:57:46.016Z,14.10
2023-05-22T22:00:13.519Z,10.30
2023-05-22T22:02:40.966Z,15.57
2023-05-22T22:05:08.096Z,11.97
2023-05-22T22:07:35.042Z,11.63
2023-05-22T22:10:01.945Z,10.07
2023-05-22T22:12:28.834Z,14.47
2023-05-22T22:14:56.969Z,10.33
2023-05-22T22:17:24.128Z,11.53
2023-05-22T22:19:53.743Z,12.87
2023-05-22T22:22:22.834Z,14.00
2023-05-22T22:24:50.029Z,12.63
2023-05-22T22:27:16.934Z,16.10
2023-05-22T22:29:43.873Z,10.47
2023-05-22T22:32:10.952Z,14.73
2023-05-22T22:34:38.034Z,11.57
2023-05-22T22:37:05.847Z,11.53
2023-05-22T22:39:32.791Z,11.80
2023-05-22T22:42:04.323Z,10.83
2023-05-22T22:44:32.564Z,17.10
2023-05-22T22:46:59.623Z,11.80
2023-05-22T22:49:26.776Z,10.87
2023-05-22T22:51:54.719Z,9.10
2023-05-22T22:54:21.546Z,11.40
2023-05-22T22:56:49.913Z,9.07
2023-05-22T22:59:17.015Z,12.07
2023-05-22T23:01:43.912Z,10.60
2023-05-22T23:04:11.331Z,9.63
2023-05-22T23:06:38.481Z,13.80
2023-05-22T23:09:05.377Z,8.80
2023-05-22T23:11:37.745Z,9.87
2023-05-22T23:14:07.684Z,11.50
2023-05-22T23:16:38.355Z,9.43
2023-05-22T23:19:05.916Z,9.77
2023-05-22T23:21:33.144Z,12.60
2023-05-22T23:24:00.850Z,8.90
2023-05-22T23:26:28.063Z,12.30
2023-05-22T23:28:54.947Z,12.03
2023-05-22T23:31:26.140Z,9.73
2023-05-22T23:33:53.356Z,9.27
2023-05-22T23:36:20.251Z,12.57
2023-05-22T23:38:47.724Z,8.07
2023-05-22T23:41:17.702Z,12.70
2023-05-22T23:43:44.823Z,13.17
2023-05-22T23:46:14.906Z,13.73
2023-05-22T23:48:42.213Z,12.30
2023-05-22T23:51:09.715Z,11.07
2023-05-22T23:53:37.075Z,10.83
2023-05-22T23:56:04.460Z,15.23
2023-05-22T23:58:32.323Z,12.90
